Huron Regional Airport Huron US
ICAO: KHON
IATA: HON
Category: Medium
Scheduled Services: Yes

Elevation: 1289 ft
TransAlt. 18000 ft.

Airport Communications:
ASOS:118.125
MINNEAPOLIS CNTR:126.25
CTAF:123.6
RDO:122.1
RDO:122.2
UNICOM:123

KHON Zoom In..

If Map Doesn't Load, Click Here

Runways:

(A) RW 12 length 7201 ft width 100 ft
ILS 110.30 / hdg 121

(B) RW 17 length 5000 ft width 75 ft
---- / hdg 173

(C) RW 30 length 7201 ft width 100 ft
---- / hdg 301

(D) RW 35 length 5000 ft width 75 ft
---- / hdg 353

Location; KHON
Day. 21 / Time. 12.55 Zulu
* Altimeter: 30.20
* Temperature: 07° c. 44.6°f.
* Wind from: 320° Speed 20 kn with Gusts up to 28 kn.
Dewpoint: 04° c.
Visibility: 10 Statute Miles.
Clouds: Overcast 2100 ft.

KHON 211255Z AUTO 32020G28KT 10SM OVC021 07/04 A3020 RMK AO2 PK WND 32028/1255 SLP231 T00720044


Wind From 320°
Speed 20 kn.

 
 
jpsmedia.com for Web Design worldairports.se 2018   terms of use